createdAt,value
2018-06-24T00:00:30.407Z,3.90
2018-06-24T00:02:59.271Z,4.53
2018-06-24T00:05:27.949Z,5.10
2018-06-24T00:07:56.455Z,6.03
2018-06-24T00:10:25.096Z,4.67
2018-06-24T00:12:53.613Z,7.13
2018-06-24T00:15:22.258Z,6.70
2018-06-24T00:17:50.770Z,5.40
2018-06-24T00:20:19.400Z,5.30
2018-06-24T00:22:48.120Z,5.37
2018-06-24T00:25:16.644Z,4.80
2018-06-24T00:27:45.145Z,5.50
2018-06-24T00:30:13.914Z,4.63
2018-06-24T00:32:42.405Z,6.37
2018-06-24T00:35:10.996Z,4.70
2018-06-24T00:37:39.532Z,4.87
2018-06-24T00:40:08.752Z,6.40
2018-06-24T00:42:37.319Z,5.83
2018-06-24T00:45:05.533Z,6.30
2018-06-24T00:47:34.018Z,4.53
2018-06-24T00:50:02.637Z,4.83
2018-06-24T00:52:31.183Z,8.60
2018-06-24T00:54:59.879Z,5.67
2018-06-24T00:57:28.407Z,4.30
2018-06-24T01:00:08.193Z,6.43
2018-06-24T01:02:36.799Z,6.50
2018-06-24T01:05:05.468Z,5.50
2018-06-24T01:07:33.984Z,5.83
2018-06-24T01:10:02.468Z,5.37
2018-06-24T01:12:30.971Z,5.90
2018-06-24T01:14:59.917Z,6.20
2018-06-24T01:17:28.488Z,6.93
2018-06-24T01:19:58.661Z,7.08
2018-06-24T01:22:27.379Z,5.73
2018-06-24T01:24:56.816Z,5.60
2018-06-24T01:27:25.684Z,4.50
2018-06-24T01:29:54.194Z,7.97
2018-06-24T01:32:23.372Z,7.50
2018-06-24T01:34:52.099Z,5.60
2018-06-24T01:37:20.600Z,6.60
2018-06-24T01:39:49.064Z,4.67
2018-06-24T01:42:17.631Z,4.60
2018-06-24T01:44:46.144Z,6.53
2018-06-24T01:47:14.648Z,6.30
2018-06-24T01:49:43.123Z,4.70
2018-06-24T01:52:11.618Z,4.93
2018-06-24T01:54:40.140Z,5.20
2018-06-24T01:57:08.749Z,5.43
2018-06-24T01:59:37.288Z,4.97
2018-06-24T02:02:05.781Z,4.63
2018-06-24T02:04:34.300Z,4.92
2018-06-24T02:07:02.932Z,5.60
2018-06-24T02:09:31.429Z,5.07
2018-06-24T02:11:59.915Z,5.67
2018-06-24T02:14:28.430Z,7.70
2018-06-24T02:16:57.002Z,6.10
2018-06-24T02:19:25.552Z,5.77
2018-06-24T02:21:54.064Z,6.75
2018-06-24T02:24:22.607Z,6.30
2018-06-24T02:26:51.142Z,6.30
2018-06-24T02:29:19.675Z,8.03
2018-06-24T02:31:48.199Z,6.17
2018-06-24T02:34:16.713Z,5.37
2018-06-24T02:36:45.317Z,5.13
2018-06-24T02:39:13.812Z,4.47
2018-06-24T02:41:42.871Z,5.50
2018-06-24T02:44:11.368Z,6.55
2018-06-24T02:46:39.939Z,5.37
2018-06-24T02:49:08.418Z,6.37
2018-06-24T02:51:36.916Z,6.20
2018-06-24T02:54:05.480Z,7.10
2018-06-24T02:56:34.069Z,6.23
2018-06-24T02:59:02.578Z,6.00
2018-06-24T03:01:31.110Z,5.47
2018-06-24T03:03:59.315Z,5.57
2018-06-24T03:06:27.902Z,5.60
2018-06-24T03:08:56.421Z,5.80
2018-06-24T03:11:25.044Z,5.47
2018-06-24T03:13:53.634Z,8.30
2018-06-24T03:16:22.278Z,5.70
2018-06-24T03:18:50.840Z,5.33
2018-06-24T03:21:19.449Z,6.70
2018-06-24T03:23:47.953Z,6.70
2018-06-24T03:26:16.573Z,6.97
2018-06-24T03:28:45.159Z,6.20
2018-06-24T03:31:13.687Z,7.80
2018-06-24T03:33:42.184Z,7.97
2018-06-24T03:36:10.801Z,7.10
2018-06-24T03:38:39.343Z,6.80
2018-06-24T03:41:07.883Z,6.07
2018-06-24T03:43:36.380Z,6.47
2018-06-24T03:46:04.932Z,5.23
2018-06-24T03:48:33.504Z,5.27
2018-06-24T03:51:01.996Z,5.47
2018-06-24T03:53:30.576Z,6.85
2018-06-24T03:55:59.162Z,7.00
2018-06-24T03:58:27.791Z,6.03
2018-06-24T04:00:56.409Z,6.03
2018-06-24T04:03:24.988Z,6.17
2018-06-24T04:05:53.571Z,5.87
2018-06-24T04:08:22.303Z,6.30
2018-06-24T04:10:50.791Z,8.43
2018-06-24T04:13:19.421Z,6.50
2018-06-24T04:15:48.109Z,10.10
2018-06-24T04:18:16.943Z,6.90
2018-06-24T04:20:45.624Z,8.70
2018-06-24T04:23:14.153Z,8.83
2018-06-24T04:25:42.710Z,6.43
2018-06-24T04:28:11.264Z,6.10
2018-06-24T04:30:40.628Z,6.80
2018-06-24T04:33:09.362Z,6.33
2018-06-24T04:35:37.952Z,7.67
2018-06-24T04:38:06.517Z,7.83
2018-06-24T04:40:35.042Z,7.27
2018-06-24T04:43:03.537Z,6.97
2018-06-24T04:45:32.279Z,8.57
2018-06-24T04:48:01.006Z,7.70
2018-06-24T04:50:29.552Z,6.87
2018-06-24T04:52:58.174Z,13.67
2018-06-24T04:55:26.684Z,8.27
2018-06-24T04:57:55.296Z,7.67
2018-06-24T05:00:24.024Z,7.57
2018-06-24T05:02:52.870Z,6.55
2018-06-24T05:05:21.634Z,12.03
2018-06-24T05:07:50.375Z,8.23
2018-06-24T05:10:19.205Z,6.90
2018-06-24T05:12:47.839Z,8.97
2018-06-24T05:15:16.412Z,7.63
2018-06-24T05:17:45.069Z,7.83
2018-06-24T05:20:13.848Z,7.53
2018-06-24T05:22:42.526Z,7.40
2018-06-24T05:25:11.292Z,11.50
2018-06-24T05:27:40.091Z,7.10
2018-06-24T05:30:08.719Z,7.10
2018-06-24T05:32:37.333Z,7.20
2018-06-24T05:35:05.945Z,8.20
2018-06-24T05:37:34.468Z,7.53
2018-06-24T05:40:03.070Z,8.77
2018-06-24T05:42:31.608Z,7.30
2018-06-24T05:45:00.116Z,7.33
2018-06-24T05:47:28.828Z,8.33
2018-06-24T05:49:57.427Z,9.07
2018-06-24T05:52:25.981Z,9.27
2018-06-24T05:54:54.904Z,11.10
2018-06-24T05:57:24.064Z,8.90
2018-06-24T05:59:52.987Z,7.03
2018-06-24T06:02:21.544Z,7.00
2018-06-24T06:04:50.098Z,10.67
2018-06-24T06:07:18.592Z,7.70
2018-06-24T06:09:48.021Z,9.67
2018-06-24T06:12:16.980Z,6.60
2018-06-24T06:14:45.995Z,8.00
2018-06-24T06:17:14.556Z,7.00
2018-06-24T06:19:43.436Z,7.70
2018-06-24T06:22:12.909Z,11.15
2018-06-24T06:24:41.071Z,10.50
2018-06-24T06:27:10.101Z,12.30
2018-06-24T06:29:38.948Z,7.10
2018-06-24T06:32:07.451Z,8.43
2018-06-24T06:34:35.988Z,9.83
2018-06-24T06:37:04.826Z,9.43
2018-06-24T06:39:33.329Z,9.67
2018-06-24T06:42:01.969Z,10.03
2018-06-24T06:44:30.483Z,9.47
2018-06-24T06:46:59.215Z,9.73
2018-06-24T06:49:27.831Z,8.00
2018-06-24T06:51:56.554Z,10.80
2018-06-24T06:54:25.051Z,14.43
2018-06-24T06:56:53.613Z,9.98
2018-06-24T06:59:22.350Z,10.93
2018-06-24T07:01:50.909Z,9.17
2018-06-24T07:04:19.678Z,10.30
2018-06-24T07:06:48.145Z,8.60
2018-06-24T07:09:16.821Z,9.20
2018-06-24T07:11:45.313Z,8.60
2018-06-24T07:14:13.836Z,12.30
2018-06-24T07:16:42.369Z,8.77
2018-06-24T07:19:10.900Z,17.80
2018-06-24T07:21:39.515Z,11.73
2018-06-24T07:24:08.025Z,16.90
2018-06-24T07:26:36.714Z,14.93
2018-06-24T07:29:05.300Z,7.50
2018-06-24T07:31:33.804Z,6.87
2018-06-24T07:34:02.388Z,7.42
2018-06-24T07:36:31.083Z,7.30
2018-06-24T07:38:59.789Z,8.07
2018-06-24T07:41:28.594Z,13.07
2018-06-24T07:43:57.102Z,11.73
2018-06-24T07:46:25.644Z,12.53
2018-06-24T07:48:54.201Z,12.47
2018-06-24T07:51:22.882Z,7.90
2018-06-24T07:53:51.405Z,15.07
2018-06-24T07:56:20.066Z,10.93
2018-06-24T07:58:48.768Z,13.20
2018-06-24T08:01:17.266Z,8.87
2018-06-24T08:03:45.825Z,10.70
2018-06-24T08:06:14.361Z,16.20
2018-06-24T08:08:42.976Z,10.80
2018-06-24T08:11:11.521Z,11.27
2018-06-24T08:13:40.112Z,7.63
2018-06-24T08:16:08.688Z,11.60
2018-06-24T08:18:37.207Z,12.93
2018-06-24T08:21:05.799Z,14.45
2018-06-24T08:23:34.310Z,8.87
2018-06-24T08:26:02.887Z,8.90
2018-06-24T08:28:31.376Z,10.67
2018-06-24T08:30:59.869Z,9.55
2018-06-24T08:33:28.442Z,8.93
2018-06-24T08:35:56.945Z,10.23
2018-06-24T08:38:25.557Z,11.77
2018-06-24T08:40:54.107Z,8.70
2018-06-24T08:43:22.606Z,9.73
2018-06-24T08:45:51.136Z,8.30
2018-06-24T08:48:19.647Z,9.20
2018-06-24T08:50:48.440Z,9.93
2018-06-24T08:53:16.932Z,10.50
2018-06-24T08:55:45.674Z,7.60
2018-06-24T08:58:14.196Z,8.27
2018-06-24T09:00:42.775Z,10.03
2018-06-24T09:03:11.274Z,8.87
2018-06-24T09:05:39.503Z,9.23
2018-06-24T09:08:08.169Z,8.10
2018-06-24T09:10:36.676Z,7.50
2018-06-24T09:13:05.345Z,7.40
2018-06-24T09:15:33.936Z,5.63
2018-06-24T09:18:02.453Z,7.87
2018-06-24T09:20:31.008Z,10.03
2018-06-24T09:22:59.491Z,6.67
2018-06-24T09:25:28.357Z,6.97
2018-06-24T09:27:56.946Z,8.00
2018-06-24T09:30:25.460Z,11.40
2018-06-24T09:32:54.048Z,6.15
2018-06-24T09:35:22.577Z,10.17
2018-06-24T09:37:51.259Z,9.60
2018-06-24T09:40:19.859Z,9.47
2018-06-24T09:42:49.541Z,11.17
2018-06-24T09:45:18.184Z,7.67
2018-06-24T09:47:46.785Z,10.08
2018-06-24T09:50:15.337Z,8.40
2018-06-24T09:52:43.977Z,9.10
2018-06-24T09:55:12.654Z,7.92
2018-06-24T09:57:41.262Z,10.57
2018-06-24T10:00:14.717Z,5.97
2018-06-24T10:02:43.283Z,6.37
2018-06-24T10:05:11.840Z,6.63
2018-06-24T10:07:40.522Z,10.37
2018-06-24T10:10:09.019Z,8.07
2018-06-24T10:12:37.654Z,5.57
2018-06-24T10:15:06.156Z,5.78
2018-06-24T10:17:34.816Z,4.70
2018-06-24T10:20:03.392Z,4.20
2018-06-24T10:22:32.039Z,5.70
2018-06-24T10:25:00.581Z,7.80
2018-06-24T10:27:30.709Z,6.73
2018-06-24T10:29:59.320Z,10.32
2018-06-24T10:32:27.848Z,9.50
2018-06-24T10:34:56.339Z,4.83
2018-06-24T10:37:24.877Z,4.40
2018-06-24T10:39:53.456Z,8.80
2018-06-24T10:42:21.944Z,7.47
2018-06-24T10:44:52.219Z,7.10
2018-06-24T10:47:20.834Z,8.18
2018-06-24T10:49:49.321Z,6.80
2018-06-24T10:52:17.852Z,5.83
2018-06-24T10:54:46.403Z,8.03
2018-06-24T10:57:14.919Z,7.40
2018-06-24T10:59:43.514Z,8.00
2018-06-24T11:02:12.055Z,10.43
2018-06-24T11:04:40.671Z,6.37
2018-06-24T11:07:09.194Z,5.13
2018-06-24T11:09:37.718Z,7.62
2018-06-24T11:12:06.240Z,5.40
2018-06-24T11:14:34.860Z,5.10
2018-06-24T11:17:03.424Z,7.43
2018-06-24T11:19:31.980Z,4.53
2018-06-24T11:22:00.484Z,4.90
2018-06-24T11:24:29.055Z,5.93
2018-06-24T11:26:57.573Z,3.75
2018-06-24T11:29:26.091Z,6.77
2018-06-24T11:31:54.771Z,5.13
2018-06-24T11:34:23.379Z,3.90
2018-06-24T11:36:51.959Z,3.83
2018-06-24T11:39:20.521Z,5.03
2018-06-24T11:41:49.046Z,3.40
2018-06-24T11:44:17.860Z,5.13
2018-06-24T11:46:46.357Z,4.07
2018-06-24T11:49:15.205Z,9.70
2018-06-24T11:51:43.817Z,4.47
2018-06-24T11:54:12.443Z,4.40
2018-06-24T11:56:40.674Z,8.08
2018-06-24T11:59:09.572Z,6.37
2018-06-24T12:01:38.064Z,5.13
2018-06-24T12:04:06.811Z,4.03
2018-06-24T12:06:34.948Z,5.67
2018-06-24T12:09:04.916Z,5.23
2018-06-24T12:11:33.447Z,3.87
2018-06-24T12:14:02.127Z,4.83
2018-06-24T12:16:30.632Z,3.83
2018-06-24T12:18:59.132Z,3.47
2018-06-24T12:21:27.685Z,5.33
2018-06-24T12:23:56.205Z,2.80
2018-06-24T12:26:24.852Z,2.97
2018-06-24T12:28:54.380Z,4.83
2018-06-24T12:31:22.968Z,4.77
2018-06-24T12:33:52.051Z,4.73
2018-06-24T12:36:25.263Z,2.67
2018-06-24T12:38:54.010Z,4.70
2018-06-24T12:41:22.528Z,3.43
2018-06-24T12:43:51.003Z,3.70
2018-06-24T12:46:19.524Z,3.40
2018-06-24T12:48:48.912Z,3.47
2018-06-24T12:51:17.484Z,4.30
2018-06-24T12:53:45.977Z,2.47
2018-06-24T12:56:14.676Z,3.50
2018-06-24T12:58:43.630Z,3.20
2018-06-24T13:01:12.342Z,3.20
2018-06-24T13:03:40.920Z,3.83
2018-06-24T13:06:09.512Z,2.20
2018-06-24T13:08:38.013Z,2.87
2018-06-24T13:11:06.541Z,3.20
2018-06-24T13:13:35.143Z,3.00
2018-06-24T13:16:03.775Z,2.43
2018-06-24T13:18:32.551Z,3.20
2018-06-24T13:21:01.188Z,4.03
2018-06-24T13:23:29.660Z,2.80
2018-06-24T13:25:58.251Z,3.58
2018-06-24T13:28:26.877Z,2.90
2018-06-24T13:30:55.657Z,4.10
2018-06-24T13:33:24.249Z,4.27
2018-06-24T13:35:52.776Z,3.27
2018-06-24T13:38:21.280Z,4.87
2018-06-24T13:40:49.779Z,2.77
2018-06-24T13:43:18.280Z,2.60
2018-06-24T13:45:46.857Z,3.60
2018-06-24T13:48:15.403Z,3.73
2018-06-24T13:50:43.919Z,2.60
2018-06-24T13:53:12.684Z,2.50
2018-06-24T13:55:41.693Z,3.10
2018-06-24T13:58:10.543Z,2.50
2018-06-24T14:00:39.044Z,4.93
2018-06-24T14:03:07.563Z,2.57
2018-06-24T14:05:36.040Z,2.50
2018-06-24T14:08:05.106Z,3.20
2018-06-24T14:10:33.600Z,2.67
2018-06-24T14:13:02.104Z,4.00
2018-06-24T14:15:30.566Z,5.50
2018-06-24T14:17:59.095Z,7.92
2018-06-24T14:20:27.296Z,3.07
2018-06-24T14:22:55.815Z,4.67
2018-06-24T14:25:24.339Z,2.47
2018-06-24T14:27:52.876Z,3.53
2018-06-24T14:30:21.511Z,4.70
2018-06-24T14:32:50.036Z,3.13
2018-06-24T14:35:18.566Z,2.70
2018-06-24T14:37:47.068Z,2.60
2018-06-24T14:40:15.653Z,3.23
2018-06-24T14:42:44.243Z,3.72
2018-06-24T14:45:12.743Z,2.80
2018-06-24T14:47:41.251Z,3.13
2018-06-24T14:50:09.747Z,2.70
2018-06-24T14:52:38.259Z,3.23
2018-06-24T14:55:06.814Z,2.97
2018-06-24T14:57:35.306Z,3.75
2018-06-24T15:00:04.812Z,3.65
2018-06-24T15:02:35.121Z,3.70
2018-06-24T15:05:04.365Z,3.10
2018-06-24T15:07:32.908Z,3.43
2018-06-24T15:10:01.439Z,3.30
2018-06-24T15:12:30.197Z,3.50
2018-06-24T15:14:59.001Z,3.70
2018-06-24T15:17:27.523Z,2.90
2018-06-24T15:19:56.052Z,4.63
2018-06-24T15:22:24.527Z,4.27
2018-06-24T15:24:53.078Z,4.17
2018-06-24T15:27:21.592Z,4.50
2018-06-24T15:29:50.167Z,3.57
2018-06-24T15:32:18.621Z,4.87
2018-06-24T15:34:47.135Z,4.40
2018-06-24T15:37:15.622Z,4.03
2018-06-24T15:39:44.132Z,4.77
2018-06-24T15:42:12.917Z,5.40
2018-06-24T15:44:41.415Z,4.27
2018-06-24T15:47:10.012Z,4.33
2018-06-24T15:49:38.516Z,4.60
2018-06-24T15:52:07.089Z,4.60
2018-06-24T15:54:35.684Z,4.77
2018-06-24T15:57:04.244Z,7.45
2018-06-24T15:59:32.880Z,5.17
2018-06-24T16:02:01.523Z,4.33
2018-06-24T16:04:29.964Z,6.27
2018-06-24T16:06:58.752Z,5.83
2018-06-24T16:09:27.336Z,5.40
2018-06-24T16:11:55.875Z,6.25
2018-06-24T16:14:24.384Z,6.60
2018-06-24T16:16:53.444Z,4.37
2018-06-24T16:19:21.973Z,10.70
2018-06-24T16:21:50.681Z,4.80
2018-06-24T16:24:19.320Z,5.27
2018-06-24T16:26:47.919Z,5.87
2018-06-24T16:29:16.548Z,6.90
2018-06-24T16:31:45.415Z,7.53
2018-06-24T16:34:14.325Z,5.10
2018-06-24T16:36:43.177Z,4.00
2018-06-24T16:39:13.059Z,5.63
2018-06-24T16:41:47.411Z,4.80
2018-06-24T16:44:18.622Z,7.17
2018-06-24T16:46:57.904Z,4.73
2018-06-24T16:49:43.862Z,4.90
2018-06-24T16:52:12.741Z,4.57
2018-06-24T16:54:41.289Z,6.03
2018-06-24T16:57:09.843Z,5.63
2018-06-24T16:59:38.578Z,7.63
2018-06-24T17:02:07.132Z,6.37
2018-06-24T17:04:35.859Z,5.70
2018-06-24T17:07:04.517Z,6.03
2018-06-24T17:09:33.040Z,5.33
2018-06-24T17:12:01.558Z,5.25
2018-06-24T17:14:30.074Z,7.00
2018-06-24T17:16:58.648Z,7.07
2018-06-24T17:19:27.139Z,6.60
2018-06-24T17:21:55.660Z,5.10
2018-06-24T17:24:24.148Z,7.57
2018-06-24T17:26:52.805Z,7.67
2018-06-24T17:29:21.322Z,6.83
2018-06-24T17:31:50.093Z,5.37
2018-06-24T17:34:18.623Z,4.43
2018-06-24T17:36:47.132Z,9.43
2018-06-24T17:39:15.766Z,5.00
2018-06-24T17:41:46.105Z,6.23
2018-06-24T17:44:15.179Z,7.10
2018-06-24T17:46:43.692Z,4.90
2018-06-24T17:49:12.240Z,4.60
2018-06-24T17:51:40.728Z,5.97
2018-06-24T17:54:09.300Z,7.13
2018-06-24T17:56:37.816Z,6.13
2018-06-24T17:59:06.332Z,6.00
2018-06-24T18:01:34.856Z,6.45
2018-06-24T18:04:03.633Z,5.07
2018-06-24T18:06:32.127Z,5.90
2018-06-24T18:09:00.651Z,7.17
2018-06-24T18:11:29.170Z,5.10
2018-06-24T18:13:57.720Z,6.13
2018-06-24T18:16:26.203Z,4.70
2018-06-24T18:18:54.712Z,5.33
2018-06-24T18:21:23.229Z,7.30
2018-06-24T18:23:51.778Z,3.87
2018-06-24T18:26:20.244Z,3.97
2018-06-24T18:28:48.904Z,4.37
2018-06-24T18:31:17.481Z,4.93
2018-06-24T18:33:46.071Z,4.67
2018-06-24T18:36:14.559Z,3.70
2018-06-24T18:38:43.833Z,4.40
2018-06-24T18:41:12.473Z,4.30
2018-06-24T18:43:40.996Z,4.10
2018-06-24T18:46:09.539Z,3.80
2018-06-24T18:48:38.077Z,3.83
2018-06-24T18:51:06.650Z,4.43
2018-06-24T18:53:35.246Z,4.07
2018-06-24T18:56:03.772Z,4.27
2018-06-24T18:58:32.299Z,5.43
2018-06-24T19:01:00.872Z,4.90
2018-06-24T19:03:29.384Z,7.17
2018-06-24T19:05:57.885Z,5.67
2018-06-24T19:08:26.404Z,4.20
2018-06-24T19:10:54.955Z,4.27
2018-06-24T19:13:23.215Z,5.30
2018-06-24T19:15:51.754Z,3.43
2018-06-24T19:18:20.252Z,4.10
2018-06-24T19:20:48.748Z,6.33
2018-06-24T19:23:17.211Z,4.13
2018-06-24T19:25:45.698Z,4.80
2018-06-24T19:28:14.181Z,9.05
2018-06-24T19:30:42.839Z,3.50
2018-06-24T19:33:11.407Z,3.40
2018-06-24T19:35:39.898Z,5.83
2018-06-24T19:38:08.484Z,3.80
2018-06-24T19:40:36.975Z,4.27
2018-06-24T19:43:05.640Z,3.70
2018-06-24T19:45:34.120Z,3.90
2018-06-24T19:48:02.590Z,4.92
2018-06-24T19:50:30.812Z,6.47
2018-06-24T19:52:59.362Z,5.47
2018-06-24T19:55:27.861Z,4.93
2018-06-24T19:57:56.369Z,4.20
2018-06-24T20:00:24.852Z,7.10
2018-06-24T20:02:53.308Z,4.35
2018-06-24T20:05:21.814Z,4.30
2018-06-24T20:07:50.172Z,3.63
2018-06-24T20:10:18.678Z,4.27
2018-06-24T20:12:47.152Z,3.77
2018-06-24T20:15:15.648Z,3.80
2018-06-24T20:17:44.154Z,3.77
2018-06-24T20:20:12.773Z,3.50
2018-06-24T20:22:41.235Z,3.73
2018-06-24T20:25:09.740Z,3.57
2018-06-24T20:27:38.516Z,5.25
2018-06-24T20:30:07.687Z,5.45
2018-06-24T20:32:35.906Z,5.87
2018-06-24T20:35:04.617Z,5.67
2018-06-24T20:37:33.121Z,6.63
2018-06-24T20:40:01.604Z,7.23
2018-06-24T20:42:30.253Z,5.90
2018-06-24T20:44:58.727Z,6.95
2018-06-24T20:47:27.304Z,6.70
2018-06-24T20:49:55.853Z,6.27
2018-06-24T20:52:24.567Z,6.43
2018-06-24T20:54:53.054Z,8.70
2018-06-24T20:57:21.574Z,6.60
2018-06-24T20:59:50.363Z,7.90
2018-06-24T21:02:18.919Z,7.17
2018-06-24T21:04:47.428Z,8.37
2018-06-24T21:07:15.919Z,11.13
2018-06-24T21:09:44.637Z,8.13
2018-06-24T21:12:13.216Z,10.20
2018-06-24T21:14:41.681Z,9.00
2018-06-24T21:17:10.421Z,8.67
2018-06-24T21:19:38.941Z,8.37
2018-06-24T21:22:07.509Z,8.00
2018-06-24T21:24:37.805Z,7.13
2018-06-24T21:27:07.553Z,9.88
2018-06-24T21:29:36.227Z,7.77
2018-06-24T21:32:04.957Z,7.20
2018-06-24T21:34:33.585Z,7.43
2018-06-24T21:37:02.228Z,6.13
2018-06-24T21:39:30.907Z,6.57
2018-06-24T21:41:59.612Z,6.00
2018-06-24T21:44:28.116Z,7.93
2018-06-24T21:46:56.701Z,5.87
2018-06-24T21:49:25.194Z,6.10
2018-06-24T21:51:54.409Z,8.10
2018-06-24T21:54:23.336Z,5.80
2018-06-24T21:56:51.951Z,6.30
2018-06-24T21:59:20.800Z,5.87
2018-06-24T22:01:49.302Z,7.43
2018-06-24T22:04:18.260Z,6.90
2018-06-24T22:06:46.980Z,5.67
2018-06-24T22:09:15.484Z,5.87
2018-06-24T22:11:44.080Z,5.40
2018-06-24T22:14:12.652Z,6.10
2018-06-24T22:16:41.387Z,5.60
2018-06-24T22:19:10.355Z,5.93
2018-06-24T22:21:38.957Z,5.30
2018-06-24T22:24:07.500Z,5.97
2018-06-24T22:26:36.023Z,6.00
2018-06-24T22:29:04.629Z,5.30
2018-06-24T22:31:33.203Z,6.43
2018-06-24T22:34:01.721Z,5.87
2018-06-24T22:36:30.268Z,6.80
2018-06-24T22:38:58.768Z,7.00
2018-06-24T22:41:27.307Z,7.13
2018-06-24T22:43:55.807Z,9.17
2018-06-24T22:46:24.023Z,5.40
2018-06-24T22:48:52.591Z,5.97
2018-06-24T22:51:21.086Z,5.60
2018-06-24T22:53:50.609Z,5.10
2018-06-24T22:56:19.114Z,5.33
2018-06-24T23:00:07.892Z,4.57
2018-06-24T23:02:36.628Z,9.73
2018-06-24T23:05:05.160Z,6.50
2018-06-24T23:07:33.642Z,6.77
2018-06-24T23:10:02.503Z,5.85
2018-06-24T23:12:31.448Z,5.63
2018-06-24T23:14:59.956Z,5.30
2018-06-24T23:17:28.528Z,4.87
2018-06-24T23:19:57.084Z,6.23
2018-06-24T23:22:25.578Z,7.63
2018-06-24T23:24:54.130Z,6.17
2018-06-24T23:27:22.678Z,6.50
2018-06-24T23:29:51.581Z,5.73
2018-06-24T23:32:20.203Z,5.00
2018-06-24T23:34:48.900Z,6.90
2018-06-24T23:37:17.395Z,5.40
2018-06-24T23:39:45.927Z,4.87
2018-06-24T23:42:14.522Z,6.90
2018-06-24T23:44:43.057Z,5.33
2018-06-24T23:47:11.629Z,6.33
2018-06-24T23:49:40.214Z,5.63
2018-06-24T23:52:08.725Z,5.05
2018-06-24T23:54:37.229Z,5.13
2018-06-24T23:57:05.987Z,6.20
2018-06-24T23:59:34.487Z,5.77
